Daily Tabular Data
[Select Refresh to Update]


2/18/19
Time         Wind Dir   Wind Spd  Wind Gust     Hum In   Humidity    Temp In       Temp  Raw Barom   Tot Rain Wind Chill Heat Ix In Heat Index  Dew Point  DailyRain   HourRain   RainRate
                            mph        mph          %          %         F         F         in         in         F         F         F         F         in         in      in/hr
12:00am           208          0          0         47         78       62.5       45.1      29.18      16.29       45.1       63.0       49.1       38.7       0.00       0.00      0.000
12:30am           208          0          1         47         80       62.4       44.1      29.18      16.29       44.1       62.9       48.3       38.3       0.00       0.00      0.000
1:00am            269          0          2         47         83       62.2       43.4      29.18      16.29       43.4       62.7       48.0       38.6       0.00       0.00      0.000
1:30am            284          0          1         47         82       61.9       43.1      29.18      16.29       43.1       62.4       47.6       38.0       0.00       0.00      0.000
2:00am            296          0          3         47         85       61.8       41.8      29.18      16.29       41.8       62.3       46.7       37.6       0.00       0.00      0.000
2:30am             22          0          2         47         87       61.6       40.9      29.19      16.29       40.9       62.1       46.1       37.3       0.00       0.00      0.000
3:00am             44          0          2         46         83       61.4       40.7      29.18      16.29       40.7       61.8       45.3       35.9       0.00       0.00      0.000
3:30am             38          0          2         46         83       61.2       40.9      29.18      16.29       40.9       61.6       45.5       36.1       0.00       0.00      0.000
4:00am             46          2          2         45         84       61.0       40.7      29.18      16.29       40.5       61.3       45.5       36.3       0.00       0.00      0.000
4:30am             79          0          2         45         83       60.9       42.4      29.18      16.29       42.4       61.2       47.0       37.6       0.00       0.00      0.000
5:00am            294          0          3         45         84       60.7       39.1      29.19      16.29       39.1       61.0       43.9       34.7       0.00       0.00      0.000
5:30am             62          1          2         44         86       60.5       38.6      29.19      16.29       38.6       60.8       43.7       34.8       0.00       0.00      0.000
6:00am            324          0          3         44         86       60.3       38.7      29.20      16.29       38.7       60.6       43.8       34.9       0.00       0.00      0.000
6:30am             44          0          2         44         82       60.1       38.0      29.20      16.29       38.0       60.4       42.5       33.0       0.00       0.00      0.000
7:00am             45          0          2         44         83       60.0       38.0      29.21      16.29       38.0       60.3       42.6       33.3       0.00       0.00      0.000
7:30am             65          2          2         44         75       59.8       42.1      29.21      16.29       42.1       60.1       45.7       34.8       0.00       0.00      0.000
8:00am             71          3          5         44         65       59.9       45.6      29.22      16.29       44.7       60.2       48.0       34.5       0.00       0.00      0.000
8:30am            202          1          5         43         74       60.6       49.8      29.24      16.29       49.8       60.8       53.2       41.9       0.00       0.00      0.000
9:00am            240          0          6         44         64       61.1       52.1      29.24      16.29       52.1       61.4       54.4       40.3       0.00       0.00      0.000
9:30am            213          0          6         43         57       61.5       54.4      29.24      16.29       54.4       61.7       55.9       39.5       0.00       0.00      0.000
10:00am           243          0          7         44         48       61.5       54.6      29.24      16.29       54.6       61.8       55.2       35.3       0.00       0.00      0.000
10:30am           140          2          7         45         48       61.0       53.9      29.24      16.29       53.9       61.3       54.5       34.7       0.00       0.00      0.000
11:00am            85          0          5         45         39       60.9       56.3      29.24      16.29       56.3       61.2       56.1       31.7       0.00       0.00      0.000
11:30am           258          0          5         46         39       60.8       56.3      29.23      16.29       56.3       61.2       56.1       31.7       0.00       0.00      0.000
12:00pm           201          0          7         46         36       61.0       59.3      29.22      16.29       59.3       61.4       58.9       32.4       0.00       0.00      0.000
12:30pm           186          2         10         46         38       61.1       55.8      29.20      16.29       55.8       61.5       55.6       30.6       0.00       0.00      0.000
1:00pm            236          2         11         46         44       61.4       56.9      29.19      16.29       56.9       61.8       57.2       35.2       0.00       0.00      0.000
1:30pm            165          5          9         46         41       61.6       58.2      29.18      16.29       57.8       62.0       58.2       34.6       0.00       0.00      0.000
2:00pm            218          3         11         46         41       61.8       56.0      29.18      16.29       56.0       62.2       56.0       32.7       0.00       0.00      0.000
2:30pm            182          3         12         46         44       62.0       57.4      29.18      16.29       57.4       62.4       57.7       35.7       0.00       0.00      0.000
3:00pm            225          0         10         46         43       62.1       56.6      29.18      16.29       56.6       62.5       56.8       34.4       0.00       0.00      0.000
3:30pm            251          4         10         46         43       62.2       53.4      29.18      16.29       52.8       62.6       53.6       31.5       0.00       0.00      0.000
4:00pm            269          0         21         45         56       62.4       50.3      29.20      16.29       50.3       62.7       51.7       35.2       0.00       0.00      0.000
4:30pm            198          1         24         45         74       62.6       46.8      29.19      16.29       46.8       62.9       50.2       39.0       0.00       0.00      0.000
5:00pm            272          6         10         45         69       62.6       46.6      29.19      16.29       43.6       62.9       49.4       37.0       0.00       0.00      0.000
5:30pm            265          0          8         45         71       62.6       46.1      29.20      16.29       46.1       62.9       49.2       37.2       0.00       0.00      0.000
6:00pm            268          1          4         44         75       62.5       46.0      29.21      16.29       46.0       62.8       49.6       38.5       0.00       0.00      0.000
6:30pm             37          1          5         44         71       62.4       45.9      29.22      16.29       45.9       62.7       49.0       37.0       0.00       0.00      0.000
7:00pm             77          0          3         44         72       62.3       44.7      29.23      16.29       44.7       62.6       47.9       36.2       0.00       0.00      0.000
7:30pm             48          0          3         44         70       62.2       44.7      29.23      16.29       44.7       62.5       47.7       35.5       0.00       0.00      0.000
8:00pm            325          0          1         44         69       61.9       46.1      29.23      16.29       46.1       62.2       48.9       36.5       0.00       0.00      0.000
8:30pm            326          0          1         44         86       61.8       45.9      29.24      16.29       45.9       62.1       51.0       42.0       0.00       0.00      0.000
9:00pm            340          0          1         44         83       61.7       45.3      29.25      16.29       45.3       62.0       49.9       40.5       0.00       0.00      0.000
9:30pm            267          2          2         43         60       61.5       44.6      29.26      16.29       44.6       61.7       46.4       31.6       0.00       0.00      0.000
10:00pm           331          1          3         43         62       61.4       44.1      29.26      16.29       44.1       61.6       46.1       31.9       0.00       0.00      0.000
10:30pm           276          0          3         43         58       61.2       45.6      29.26      16.29       45.6       61.4       47.2       31.7       0.00       0.00      0.000
11:00pm            30          0          4         44         62       61.1       44.5      29.27      16.29       44.5       61.4       46.5       32.3       0.00       0.00      0.000
11:30pm           326          0          3         43         67       60.9       43.3      29.27      16.29       43.3       61.1       45.9       33.1       0.00       0.00      0.000